Time;durP1;ratioP1;P1;durP2;ratioP2;P2;SDS_P1;SDS_P2;PMS_P1;PMS_P2;Temp;Humidity;BMP_temperature;BMP_pressure;BME280_temperature;BME280_humidity;BME280_pressure;Samples;Min_cycle;Max_cycle;Signal;HPM_P1;HPM_P2
2022/08/08 00:00:18;;;;;;;11.23;6.72;;;;;;;11.75;100.00;155476.53;4912580;29;20107;-78
2022/08/08 00:03:09;;;;;;;9.82;7.03;;;;;;;11.78;100.00;155484.28;4913205;29;20475;-78
2022/08/08 00:05:48;;;;;;;11.65;6.65;;;;;;;11.72;100.00;155468.88;4898950;29;20055;-77
2022/08/08 00:08:37;;;;;;;9.30;6.55;;;;;;;11.67;100.00;155456.03;4915006;29;20032;-78
2022/08/08 00:11:33;;;;;;;8.02;6.35;;;;;;;11.62;100.00;155444.50;4900736;29;20044;-79
2022/08/08 00:14:38;;;;;;;10.82;6.72;;;;;;;11.61;100.00;155441.91;4925732;29;20123;-77
2022/08/08 00:17:22;;;;;;;11.40;7.15;;;;;;;11.63;100.00;155445.75;4897269;29;20039;-77
2022/08/08 00:19:51;;;;;;;10.27;6.32;;;;;;;11.61;100.00;155441.91;4913128;29;20031;-78
2022/08/08 00:22:23;;;;;;;13.18;6.50;;;;;;;11.59;100.00;155435.50;4897242;29;20273;-78
2022/08/08 00:24:55;;;;;;;9.00;6.45;;;;;;;11.55;100.00;155426.50;4905588;29;20589;-76
2022/08/08 00:27:21;;;;;;;11.23;6.72;;;;;;;11.49;100.00;155411.13;4898243;29;20064;-78
2022/08/08 00:29:57;;;;;;;10.82;6.80;;;;;;;11.43;100.00;155397.00;4928754;29;20498;-77
2022/08/08 00:32:50;;;;;;;9.77;6.65;;;;;;;11.42;100.00;155393.13;4914108;29;20032;-78
2022/08/08 00:35:30;;;;;;;12.18;6.90;;;;;;;11.34;100.00;155372.56;4897106;29;20055;-77
2022/08/08 00:38:33;;;;;;;12.65;6.38;;;;;;;11.36;100.00;155377.69;4923950;29;20062;-80
2022/08/08 00:41:21;;;;;;;11.55;6.72;;;;;;;11.34;100.00;155372.56;4905434;29;20091;-77
2022/08/08 00:43:55;;;;;;;10.82;6.53;;;;;;;11.30;100.00;155364.91;4879607;29;20040;-78
2022/08/08 00:46:55;;;;;;;10.98;7.13;;;;;;;11.26;100.00;155354.63;4912975;29;20038;-77
2022/08/08 00:49:40;;;;;;;8.23;7.43;;;;;;;11.24;100.00;155348.19;4881808;29;20126;-78
2022/08/08 00:52:33;;;;;;;10.18;7.20;;;;;;;11.22;100.00;155343.06;4914582;29;20035;-77
2022/08/08 00:55:13;;;;;;;10.00;7.00;;;;;;;11.24;100.00;155349.47;4912942;29;20027;-78
2022/08/08 00:58:17;;;;;;;8.73;7.18;;;;;;;11.25;100.00;155350.78;4913321;29;20047;-76
2022/08/08 01:00:55;;;;;;;9.82;7.28;;;;;;;11.28;100.00;155358.44;4904762;29;20127;-78
2022/08/08 01:03:27;;;;;;;9.93;7.60;;;;;;;11.26;100.00;155354.63;4896673;29;20048;-77
2022/08/08 01:06:24;;;;;;;8.23;7.10;;;;;;;11.28;100.00;155358.44;4897785;29;20095;-77
2022/08/08 01:09:02;;;;;;;11.60;7.28;;;;;;;11.33;100.00;155370.03;4896090;29;20450;-77
2022/08/08 01:11:56;;;;;;;7.95;6.55;;;;;;;11.35;100.00;155376.44;4890731;29;20076;-79
2022/08/08 01:14:34;;;;;;;10.18;7.15;;;;;;;11.37;100.00;155380.28;4929084;29;20067;-78
2022/08/08 01:17:30;;;;;;;9.10;7.45;;;;;;;11.40;100.00;155389.28;4916964;29;20081;-77
2022/08/08 01:20:18;;;;;;;12.15;7.47;;;;;;;11.38;100.00;155384.16;4908508;29;20028;-77
2022/08/08 01:23:05;;;;;;;18.38;7.60;;;;;;;11.39;100.00;155386.69;4927142;29;20040;-78
2022/08/08 01:25:55;;;;;;;12.48;7.53;;;;;;;11.39;100.00;155386.69;4894990;29;20448;-78
2022/08/08 01:28:43;;;;;;;11.95;7.50;;;;;;;11.32;100.00;155368.75;4897017;29;20119;-78
2022/08/08 01:31:52;;;;;;;11.85;7.65;;;;;;;11.24;100.00;155348.19;4912213;29;20032;-77
2022/08/08 01:35:05;;;;;;;12.23;7.65;;;;;;;11.21;100.00;155340.53;4911961;29;20395;-78
2022/08/08 01:37:58;;;;;;;12.02;8.02;;;;;;;11.24;100.00;155349.47;4907151;29;20043;-77
2022/08/08 01:40:58;;;;;;;10.07;8.20;;;;;;;11.15;100.00;155325.09;4910227;29;20048;-77
2022/08/08 01:43:48;;;;;;;9.93;7.65;;;;;;;11.10;100.00;155314.81;4895920;29;20040;-77
2022/08/08 01:46:46;;;;;;;19.17;7.85;;;;;;;11.00;100.00;155287.88;4880357;29;20072;-79
2022/08/08 01:49:33;;;;;;;12.23;7.53;;;;;;;11.09;100.00;155310.97;4928086;29;20032;-79
2022/08/08 01:52:05;;;;;;;9.90;8.23;;;;;;;11.09;100.00;155312.28;4907722;29;20047;-77
2022/08/08 01:54:51;;;;;;;14.65;8.02;;;;;;;11.04;100.00;155299.44;4891343;29;20044;-77
2022/08/08 01:57:37;;;;;;;10.02;8.05;;;;;;;11.05;100.00;155301.97;4912642;29;20131;-77
2022/08/08 02:00:24;;;;;;;12.27;8.40;;;;;;;11.06;100.00;155304.56;4894738;29;20127;-77
2022/08/08 02:03:15;;;;;;;9.10;7.18;;;;;;;11.00;100.00;155289.19;4916039;29;20036;-78
2022/08/08 02:06:05;;;;;;;11.75;8.18;;;;;;;10.97;100.00;155281.47;4910311;29;20047;-77
2022/08/08 02:09:04;;;;;;;11.32;8.38;;;;;;;10.89;100.00;155262.22;4916192;29;20044;-78
2022/08/08 02:11:38;;;;;;;13.23;8.93;;;;;;;10.87;100.00;155257.09;4916449;29;20057;-77
2022/08/08 02:14:27;;;;;;;13.23;8.30;;;;;;;10.85;100.00;155251.97;4919437;29;20420;-78
2022/08/08 02:17:03;;;;;;;13.48;7.95;;;;;;;10.78;100.00;155232.72;4920081;29;20036;-77
2022/08/08 02:19:40;;;;;;;13.73;7.57;;;;;;;10.72;100.00;155218.59;4916611;29;20399;-78
2022/08/08 02:22:30;;;;;;;11.13;8.30;;;;;;;10.74;100.00;155223.72;4915102;29;20039;-79
2022/08/08 02:25:07;;;;;;;11.00;7.95;;;;;;;10.80;100.00;155237.84;4895733;29;20043;-76
2022/08/08 02:27:59;;;;;;;12.52;8.18;;;;;;;10.78;100.00;155234.00;4896931;29;20143;-78
2022/08/08 02:30:52;;;;;;;13.55;7.90;;;;;;;10.72;100.00;155218.59;4901592;29;20032;-79
2022/08/08 02:33:37;;;;;;;;;;;;;;;10.64;100.00;155198.03;4916641;29;20453;-75
2022/08/08 02:36:25;;;;;;;8.85;7.32;;;;;;;10.59;100.00;155186.53;4912053;29;20038;-76
2022/08/08 02:39:18;;;;;;;10.90;7.47;;;;;;;10.55;100.00;155176.28;4915447;29;20063;-77
2022/08/08 02:42:03;;;;;;;;;;;;;;;10.52;100.00;155168.56;4897405;29;20040;-77
2022/08/08 02:44:40;;;;;;;11.20;8.07;;;;;;;10.48;100.00;155158.31;4915218;29;19919;-76
2022/08/08 02:47:59;;;;;;;12.80;8.10;;;;;;;10.49;100.00;155162.16;4899902;29;20511;-77
2022/08/08 02:50:52;;;;;;;9.40;7.95;;;;;;;10.42;100.00;155144.19;4899553;29;20111;-78
2022/08/08 02:53:46;;;;;;;11.85;8.50;;;;;;;10.41;100.00;155141.59;4899842;29;20092;-79
2022/08/08 02:56:30;;;;;;;13.02;8.80;;;;;;;10.41;100.00;155140.34;4916770;29;20035;-78
2022/08/08 02:59:15;;;;;;;12.10;9.02;;;;;;;10.36;100.00;155127.50;4917332;29;20506;-77
2022/08/08 03:02:17;;;;;;;13.60;9.07;;;;;;;10.27;100.00;155105.66;4907601;29;20024;-78
2022/08/08 03:05:08;;;;;;;12.13;8.48;;;;;;;10.30;100.00;155114.69;4898913;29;20028;-79
2022/08/08 03:08:13;;;;;;;13.98;9.55;;;;;;;10.28;100.00;155108.19;4905992;29;20048;-78
2022/08/08 03:11:04;;;;;;;13.00;7.95;;;;;;;10.21;100.00;155091.56;4905434;29;20180;-78
2022/08/08 03:13:49;;;;;;;12.05;8.18;;;;;;;10.26;100.00;155103.06;4895381;29;20176;-78
2022/08/08 03:16:41;;;;;;;12.52;8.80;;;;;;;10.23;100.00;155095.41;4914509;29;20091;-78
2022/08/08 03:19:31;;;;;;;9.65;8.63;;;;;;;10.21;100.00;155091.56;4885845;29;20040;-79
2022/08/08 03:21:57;;;;;;;13.55;8.63;;;;;;;10.29;100.00;155112.06;4873632;29;20036;-78
2022/08/08 03:24:23;;;;;;;12.98;8.75;;;;;;;10.35;100.00;155126.22;4898780;29;20032;-77
2022/08/08 03:26:54;;;;;;;11.38;9.38;;;;;;;10.37;100.00;155130.06;4930240;29;20040;-77
2022/08/08 03:29:27;;;;;;;10.03;8.33;;;;;;;10.37;100.00;155130.06;4910665;29;20040;-78
2022/08/08 03:34:38;;;;;;;15.85;9.88;;;;;;;10.47;100.00;155157.03;4909883;29;20040;-78
2022/08/08 03:37:09;;;;;;;13.52;8.20;;;;;;;10.47;100.00;155157.03;4897956;29;20039;-77
2022/08/08 03:39:35;;;;;;;11.77;9.57;;;;;;;10.49;100.00;155162.16;4901188;29;20159;-77
2022/08/08 03:42:01;;;;;;;14.75;9.55;;;;;;;10.62;100.00;155194.19;4910595;29;20123;-77
2022/08/08 03:44:33;;;;;;;12.43;8.35;;;;;;;10.75;100.00;155226.28;4910878;29;20462;-76
2022/08/08 03:47:02;;;;;;;10.75;8.52;;;;;;;10.75;100.00;155225.00;4910029;29;20495;-78
2022/08/08 03:49:28;;;;;;;10.60;8.35;;;;;;;10.77;100.00;155230.13;4880387;29;20135;-77
2022/08/08 03:51:55;;;;;;;11.32;8.48;;;;;;;10.84;100.00;155248.09;4929740;29;20124;-77
2022/08/08 03:54:28;;;;;;;11.65;8.05;;;;;;;10.85;100.00;155251.97;4909442;29;20028;-77
2022/08/08 03:56:55;;;;;;;9.65;8.40;;;;;;;10.93;100.00;155269.94;4902529;29;20091;-78
2022/08/08 03:59:27;;;;;;;11.00;8.45;;;;;;;10.91;100.00;155266.06;4928907;29;20059;-77
2022/08/08 04:01:53;;;;;;;16.50;9.05;;;;;;;11.04;100.00;155298.16;4883187;29;20047;-76
2022/08/08 04:04:19;;;;;;;13.40;8.93;;;;;;;11.05;100.00;155300.72;4912203;29;20040;-78
2022/08/08 04:06:55;;;;;;;10.60;8.00;;;;;;;11.08;100.00;155308.44;4898182;29;20184;-77
2022/08/08 04:09:22;;;;;;;14.60;8.30;;;;;;;11.11;100.00;155316.09;4913753;29;20044;-77
2022/08/08 04:11:48;;;;;;;14.70;9.20;;;;;;;11.16;100.00;155328.94;4897015;29;20392;-77
2022/08/08 04:14:14;;;;;;;12.32;9.20;;;;;;;11.18;100.00;155332.81;4912760;29;20487;-78
2022/08/08 04:16:42;;;;;;;11.60;8.95;;;;;;;11.21;100.00;155340.53;4898445;29;20040;-76
2022/08/08 04:19:10;;;;;;;12.07;8.38;;;;;;;11.29;100.00;155361.03;4906071;29;20521;-77
2022/08/08 04:21:36;;;;;;;13.23;9.05;;;;;;;11.39;100.00;155385.41;4915433;29;20028;-78
2022/08/08 04:24:01;;;;;;;11.60;8.82;;;;;;;11.40;100.00;155389.28;4913507;29;20028;-76
2022/08/08 04:26:27;;;;;;;11.43;8.68;;;;;;;11.48;100.00;155409.81;4902599;29;20036;-76
2022/08/08 04:28:53;;;;;;;12.90;8.57;;;;;;;11.53;100.00;155421.38;4913261;29;20123;-77
2022/08/08 04:31:18;;;;;;;9.65;8.30;;;;;;;11.55;100.00;155426.50;4911412;29;20047;-76
2022/08/08 04:33:44;;;;;;;9.20;8.15;;;;;;;11.58;100.00;155434.19;4895229;29;20168;-78
2022/08/08 04:36:10;;;;;;;10.05;7.60;;;;;;;11.66;100.00;155453.47;4893485;29;20799;-79
2022/08/08 04:38:36;;;;;;;10.02;7.65;;;;;;;11.71;100.00;155466.28;4901530;29;20052;-78
2022/08/08 04:41:02;;;;;;;8.38;7.32;;;;;;;11.73;100.00;155470.16;4894684;29;20098;-79
2022/08/08 04:43:28;;;;;;;13.52;8.27;;;;;;;11.85;100.00;155500.97;4913291;29;20051;-77
2022/08/08 04:45:54;;;;;;;9.63;8.23;;;;;;;11.87;100.00;155507.38;4909081;29;20075;-77
2022/08/08 04:48:20;;;;;;;10.98;7.25;;;;;;;11.91;100.00;155515.16;4908973;29;20044;-77
2022/08/08 04:50:46;;;;;;;8.82;7.45;;;;;;;11.87;100.00;155507.38;4897318;29;20055;-76
2022/08/08 04:53:14;;;;;;;16.83;8.02;;;;;;;11.98;100.00;155534.41;4897495;29;20050;-75
2022/08/08 04:55:41;;;;;;;12.10;7.95;;;;;;;12.05;100.00;155552.41;4914731;29;20047;-77
2022/08/08 04:58:12;;;;;;;9.32;7.63;;;;;;;12.14;100.00;155574.19;4890342;29;20044;-78
2022/08/08 05:00:40;;;;;;;9.57;7.53;;;;;;;12.22;100.00;155594.78;4893961;29;20028;-78
2022/08/08 05:03:06;;;;;;;10.65;7.43;;;;;;;12.27;100.00;155606.31;4893189;29;20032;-77
2022/08/08 05:05:32;;;;;;;12.05;7.72;;;;;;;12.32;100.00;155617.84;4903473;29;20091;-78
2022/08/08 05:07:58;;;;;;;13.48;8.13;;;;;;;12.43;100.00;155647.44;4913046;29;20634;-77
2022/08/08 05:10:28;;;;;;;12.25;7.18;;;;;;;12.50;100.00;155662.81;4896341;29;20076;-77
2022/08/08 05:12:56;;;;;;;8.45;7.55;;;;;;;12.54;100.00;155674.38;4894639;29;20060;-76
2022/08/08 05:15:22;;;;;;;9.90;7.43;;;;;;;12.64;100.00;155698.81;4900939;29;20086;-78
2022/08/08 05:17:49;;;;;;;11.35;7.93;;;;;;;12.76;100.00;155729.63;4878052;29;20067;-78
2022/08/08 05:20:14;;;;;;;12.50;7.72;;;;;;;12.96;100.00;155779.75;4881385;29;20491;-79
2022/08/08 05:22:40;;;;;;;11.25;7.68;;;;;;;13.08;100.00;155808.00;4914034;29;20122;-76
2022/08/08 05:25:07;;;;;;;10.13;7.03;;;;;;;13.28;100.00;155859.41;4928323;29;20036;-76
2022/08/08 05:27:33;;;;;;;13.75;7.18;;;;;;;13.43;100.00;155898.00;4901003;29;20430;-78
2022/08/08 05:30:00;;;;;;;9.90;7.13;;;;;;;13.52;100.00;155918.56;4889755;29;20032;-76
2022/08/08 05:32:32;;;;;;;9.82;7.70;;;;;;;13.60;100.00;155940.44;4891362;29;20398;-77
2022/08/08 05:34:59;;;;;;;12.77;7.47;;;;;;;13.72;100.00;155969.97;4899827;29;20040;-77
2022/08/08 05:37:31;;;;;;;9.43;6.97;;;;;;;13.87;100.00;156006.00;4906796;29;20059;-78
2022/08/08 05:40:03;;;;;;;8.20;6.38;;;;;;;14.06;100.00;156054.81;4928750;29;20032;-77
2022/08/08 05:42:39;;;;;;;;;;;;;;;14.17;100.00;156083.13;4905676;29;20060;-77
2022/08/08 05:45:07;;;;;;;9.93;6.30;;;;;;;14.29;100.00;156112.69;4912447;29;19923;-77
2022/08/08 05:47:34;;;;;;;8.77;5.93;;;;;;;14.35;100.00;156126.81;4901121;29;20043;-77
2022/08/08 05:50:04;;;;;;;8.88;5.50;;;;;;;14.39;100.00;156137.09;4900502;29;20036;-78
2022/08/08 05:52:34;;;;;;;10.02;5.47;;;;;;;14.41;100.00;156142.28;4925608;29;20149;-78
2022/08/08 05:55:10;;;;;;;7.05;5.22;;;;;;;14.34;100.00;156125.56;4902374;29;20032;-76
2022/08/08 05:57:39;;;;;;;7.93;5.07;;;;;;;14.37;100.00;156131.97;4893102;29;20048;-78
2022/08/08 06:00:09;;;;;;;6.65;4.85;;;;;;;14.31;100.00;156116.53;4915616;29;20063;-76
2022/08/08 06:03:12;;;;;;;12.32;4.90;;;;;;;14.33;100.00;156121.69;4891111;29;20813;-77
2022/08/08 06:05:47;;;;;;;;;;;;;;;14.37;100.00;156131.97;4897389;29;20126;-78
2022/08/08 06:08:14;;;;;;;7.00;5.10;;;;;;;14.43;100.00;156146.13;4912409;29;20389;-79
2022/08/08 06:10:40;;;;;;;10.75;3.72;;;;;;;14.61;100.00;156192.47;4912477;29;20051;-76
2022/08/08 06:13:08;;;;;;;6.68;3.78;;;;;;;14.84;100.00;156249.06;4896426;29;20067;-78
2022/08/08 06:15:36;;;;;;;8.43;3.25;;;;;;;15.07;100.00;156308.25;4932287;29;20044;-78
2022/08/08 06:18:03;;;;;;;6.15;3.13;;;;;;;15.21;100.00;156342.97;4912230;29;20075;-78
2022/08/08 06:20:29;;;;;;;11.70;2.85;;;;;;;15.36;100.00;156380.28;4896327;29;20040;-77
2022/08/08 06:22:55;;;;;;;5.18;2.65;;;;;;;15.48;100.00;156411.19;4912515;29;20454;-76
2022/08/08 06:25:21;;;;;;;5.28;2.67;;;;;;;15.72;100.00;156471.63;4915517;29;20159;-77
2022/08/08 06:27:54;;;;;;;6.15;2.65;;;;;;;15.81;100.00;156493.59;4899597;29;20165;-79
2022/08/08 06:30:21;;;;;;;3.67;2.92;;;;;;;15.92;100.00;156520.63;4899930;29;20130;-78
2022/08/08 06:32:55;;;;;;;9.77;3.00;;;;;;;16.15;100.00;156578.53;4899939;29;20035;-79
2022/08/08 06:35:23;;;;;;;;;;;;;;;16.30;98.78;156617.16;4910827;29;20028;-78
2022/08/08 06:37:57;;;;;;;6.20;3.03;;;;;;;16.66;97.67;156707.28;4899404;29;19926;-77
2022/08/08 06:40:32;;;;;;;5.55;2.97;;;;;;;16.97;96.33;156783.31;4896284;29;20032;-76
2022/08/08 06:43:05;;;;;;;7.20;3.65;;;;;;;16.88;93.62;156762.72;4923510;29;20139;-77
2022/08/08 06:45:37;;;;;;;3.97;2.78;;;;;;;16.77;92.36;156733.06;4905320;29;20051;-78
2022/08/08 06:48:05;;;;;;;6.95;2.63;;;;;;;16.69;94.06;156713.75;4896444;29;20040;-78
2022/08/08 06:50:35;;;;;;;5.45;3.15;;;;;;;16.61;96.54;156693.13;4915086;29;20079;-78
2022/08/08 06:53:04;;;;;;;7.00;2.92;;;;;;;16.49;98.06;156663.50;4899321;29;20032;-78
2022/08/08 06:55:30;;;;;;;5.93;3.13;;;;;;;16.63;97.64;156699.59;4911867;29;20071;-77
2022/08/08 06:57:55;;;;;;;5.40;2.60;;;;;;;16.82;94.97;156745.91;4911591;29;20067;-78
2022/08/08 07:00:21;;;;;;;3.38;2.30;;;;;;;17.01;90.71;156793.59;4930163;29;20040;-79
2022/08/08 07:02:52;;;;;;;5.10;2.22;;;;;;;17.16;93.05;156832.28;4898624;29;20039;-78
2022/08/08 07:05:22;;;;;;;6.00;2.40;;;;;;;17.38;87.45;156887.63;4927568;29;20028;-78
2022/08/08 07:08:00;;;;;;;4.40;2.00;;;;;;;17.40;84.89;156892.78;4900308;29;20032;-79
2022/08/08 07:10:34;;;;;;;6.97;1.83;;;;;;;17.53;85.01;156925.00;4897358;29;20493;-77
2022/08/08 07:13:04;;;;;;;5.00;2.00;;;;;;;17.72;83.99;156972.66;4904080;29;20127;-77
2022/08/08 07:15:56;;;;;;;3.40;1.77;;;;;;;17.67;83.38;156959.81;4912191;29;20038;-76
2022/08/08 07:18:32;;;;;;;5.07;1.70;;;;;;;17.83;84.03;156999.75;4914881;29;20594;-78
2022/08/08 07:21:05;;;;;;;4.63;1.90;;;;;;;17.94;81.74;157028.13;4912263;29;20055;-77
2022/08/08 07:23:44;;;;;;;3.70;1.70;;;;;;;18.10;83.54;157068.06;4905565;29;20068;-77
2022/08/08 07:26:15;;;;;;;4.22;2.13;;;;;;;18.27;80.73;157111.91;4930706;29;20056;-79
2022/08/08 07:28:42;;;;;;;7.90;2.03;;;;;;;18.26;82.42;157109.31;4894049;29;20048;-78
2022/08/08 07:31:08;;;;;;;5.38;2.20;;;;;;;18.40;83.57;157144.16;4911137;29;20115;-78
2022/08/08 07:33:35;;;;;;;5.05;2.25;;;;;;;18.57;84.10;157185.38;4896457;29;20025;-78
2022/08/08 07:36:04;;;;;;;7.97;2.05;;;;;;;18.52;80.48;157172.50;4899104;29;20075;-77
2022/08/08 07:38:31;;;;;;;5.45;2.20;;;;;;;18.45;80.08;157157.00;4882964;29;20040;-77
2022/08/08 07:41:06;;;;;;;3.13;1.92;;;;;;;18.65;83.82;157207.28;4901527;29;20062;-76
2022/08/08 07:43:35;;;;;;;5.05;2.00;;;;;;;18.77;80.24;157236.94;4918808;29;20032;-78
2022/08/08 07:46:02;;;;;;;3.53;1.95;;;;;;;18.98;77.27;157288.56;4910969;29;20550;-78
2022/08/08 07:48:28;;;;;;;5.45;2.13;;;;;;;19.08;81.11;157313.06;4914221;29;20039;-77
2022/08/08 07:50:57;;;;;;;2.60;1.80;;;;;;;19.21;75.72;157346.56;4929523;29;20032;-78
2022/08/08 07:53:55;;;;;;;3.92;2.17;;;;;;;19.33;74.15;157376.25;4898060;29;20825;-77
2022/08/08 07:56:25;;;;;;;4.00;1.83;;;;;;;19.56;77.83;157434.28;4898227;29;20126;-78
2022/08/08 07:58:51;;;;;;;6.78;1.83;;;;;;;19.57;74.94;157436.84;4910462;29;20537;-76
2022/08/08 08:01:24;;;;;;;4.32;1.80;;;;;;;19.58;73.37;157440.72;4929827;29;20080;-77
2022/08/08 08:03:57;;;;;;;3.90;1.90;;;;;;;19.64;71.64;157454.91;4918105;29;20410;-77
2022/08/08 08:06:26;;;;;;;7.18;2.15;;;;;;;19.64;72.05;157456.19;4932354;29;20135;-77
2022/08/08 08:09:06;;;;;;;6.85;2.13;;;;;;;19.74;75.07;157480.78;4922205;29;20107;-78
2022/08/08 08:11:35;;;;;;;7.07;2.47;;;;;;;19.84;76.58;157505.28;4897467;29;20036;-78
2022/08/08 08:14:04;;;;;;;9.30;2.17;;;;;;;19.89;74.59;157518.19;4917866;29;20083;-78
2022/08/08 08:16:37;;;;;;;7.10;2.28;;;;;;;20.09;78.34;157567.19;4916788;29;20052;-77
2022/08/08 08:19:06;;;;;;;5.82;2.20;;;;;;;20.22;71.30;157602.00;4915709;29;20084;-76
2022/08/08 08:21:44;;;;;;;5.13;2.08;;;;;;;20.16;72.42;157586.56;4896155;29;20040;-77
2022/08/08 08:24:17;;;;;;;4.80;2.00;;;;;;;19.98;72.27;157541.38;4909805;29;20035;-78
2022/08/08 08:26:42;;;;;;;6.63;2.38;;;;;;;20.01;71.93;157547.84;4909741;29;20043;-77
2022/08/08 08:29:08;;;;;;;9.75;2.40;;;;;;;20.16;70.29;157586.56;4894745;29;20123;-76
2022/08/08 08:31:36;;;;;;;5.13;2.22;;;;;;;20.08;68.99;157564.59;4900297;29;20098;-75
2022/08/08 08:34:01;;;;;;;5.18;2.08;;;;;;;20.40;75.76;157645.94;4912887;29;20031;-78
2022/08/08 08:36:27;;;;;;;4.57;1.83;;;;;;;20.58;69.96;157692.34;4894823;29;20459;-78
2022/08/08 08:38:54;;;;;;;7.70;2.50;;;;;;;20.72;67.82;157727.25;4914199;29;20024;-77
2022/08/08 08:41:27;;;;;;;;;;;;;;;20.90;71.88;157772.41;4913221;29;20058;-77
2022/08/08 08:43:53;;;;;;;7.03;2.17;;;;;;;21.08;69.86;157817.59;4913385;29;19954;-78
2022/08/08 08:46:19;;;;;;;6.93;2.60;;;;;;;21.27;68.59;157865.38;4909363;29;20083;-77
2022/08/08 08:48:46;;;;;;;4.72;2.15;;;;;;;21.32;66.40;157876.97;4913109;29;20047;-77
2022/08/08 08:51:14;;;;;;;10.82;2.90;;;;;;;21.49;66.12;157919.63;4890002;29;20028;-77
2022/08/08 08:53:52;;;;;;;8.02;2.45;;;;;;;21.67;65.10;157964.84;4884394;29;20040;-78
2022/08/08 08:56:24;;;;;;;5.07;2.28;;;;;;;21.61;68.49;157949.34;4913765;29;20072;-76
2022/08/08 08:58:56;;;;;;;6.68;2.35;;;;;;;21.94;68.14;158033.25;4929121;29;20051;-78
2022/08/08 09:01:37;;;;;;;5.70;2.00;;;;;;;22.01;66.21;158050.06;4910669;29;20478;-78
2022/08/08 09:04:08;;;;;;;9.07;2.47;;;;;;;22.33;65.76;158131.47;4900416;29;20028;-78
2022/08/08 09:06:40;;;;;;;7.30;2.40;;;;;;;22.62;65.37;158203.78;4900303;29;20081;-77
2022/08/08 09:09:09;;;;;;;3.80;2.05;;;;;;;22.67;66.60;158216.72;4889929;29;20036;-77
2022/08/08 09:11:35;;;;;;;5.28;2.15;;;;;;;22.61;61.00;158201.25;4919486;29;20070;-79
2022/08/08 09:14:02;;;;;;;9.13;2.63;;;;;;;22.66;64.58;158214.13;4911807;29;20096;-78
2022/08/08 09:16:31;;;;;;;12.63;2.88;;;;;;;22.36;61.92;158139.22;4931346;29;20084;-76
2022/08/08 09:18:58;;;;;;;5.85;2.67;;;;;;;22.38;62.84;158144.41;4934877;29;20075;-79
2022/08/08 09:21:25;;;;;;;5.25;2.20;;;;;;;22.25;67.72;158110.78;4917768;29;20036;-79
2022/08/08 09:23:53;;;;;;;9.45;2.60;;;;;;;22.23;62.59;158106.88;4902738;29;20055;-78
2022/08/08 09:26:28;;;;;;;6.43;2.15;;;;;;;22.10;63.54;158074.59;4896261;29;20116;-79
2022/08/08 09:28:59;;;;;;;8.25;2.25;;;;;;;22.24;63.27;158108.16;4895527;29;20036;-77
2022/08/08 09:31:54;;;;;;;5.18;1.88;;;;;;;22.22;63.32;158104.28;4919211;29;20032;-78
2022/08/08 09:34:24;;;;;;;4.68;1.75;;;;;;;22.09;64.63;158071.97;4888018;29;20032;-77
2022/08/08 09:36:59;;;;;;;4.43;1.73;;;;;;;22.26;61.77;158114.66;4917739;29;20051;-78
2022/08/08 09:39:29;;;;;;;8.98;2.30;;;;;;;22.28;62.64;158118.53;4915461;29;20099;-76
2022/08/08 09:42:06;;;;;;;6.18;2.22;;;;;;;21.92;61.80;158028.09;4911211;29;20554;-79
2022/08/08 09:45:06;;;;;;;5.03;1.80;;;;;;;21.76;61.94;157989.34;4915057;29;20489;-78
2022/08/08 09:47:34;;;;;;;5.03;1.73;;;;;;;22.00;62.44;158047.44;4912625;29;20584;-77
2022/08/08 09:50:03;;;;;;;5.53;1.80;;;;;;;22.06;60.18;158063.00;4934655;29;20406;-78
2022/08/08 09:52:31;;;;;;;6.05;1.90;;;;;;;22.23;60.98;158106.88;4908565;29;20047;-76
2022/08/08 09:54:57;;;;;;;8.27;1.67;;;;;;;22.49;59.96;158172.81;4929820;29;20035;-76
2022/08/08 09:57:50;;;;;;;4.68;1.75;;;;;;;22.43;59.60;158157.28;4935640;29;20044;-78
2022/08/08 10:00:18;;;;;;;3.33;1.70;;;;;;;22.55;63.33;158187.03;4925492;29;20502;-78
2022/08/08 10:02:46;;;;;;;3.70;1.60;;;;;;;22.81;63.24;158251.59;4919565;29;20044;-79
2022/08/08 10:05:20;;;;;;;5.47;1.73;;;;;;;23.29;64.13;158373.13;4928910;29;20032;-77
2022/08/08 10:07:52;;;;;;;7.63;1.92;;;;;;;23.01;60.96;158302.00;4919348;29;20044;-78
2022/08/08 10:10:37;;;;;;;6.50;1.70;;;;;;;22.64;58.59;158208.94;4919435;29;20042;-76
2022/08/08 10:13:20;;;;;;;4.85;1.92;;;;;;;22.69;61.21;158223.16;4902227;29;20521;-76
2022/08/08 10:15:48;;;;;;;6.03;1.95;;;;;;;23.01;60.91;158303.28;4920179;29;20103;-78
2022/08/08 10:18:28;;;;;;;2.53;1.90;;;;;;;22.87;63.27;158267.13;4906420;29;20082;-77
2022/08/08 10:21:06;;;;;;;3.90;1.70;;;;;;;22.82;60.70;158254.19;4916796;29;20031;-77
2022/08/08 10:23:43;;;;;;;8.00;1.98;;;;;;;22.78;63.77;158245.16;4908772;29;20044;-78
2022/08/08 10:26:21;;;;;;;2.47;1.65;;;;;;;22.97;64.46;158291.66;4908383;29;20274;-78
2022/08/08 10:28:58;;;;;;;6.07;1.95;;;;;;;23.06;62.66;158316.25;4915896;29;20105;-80
2022/08/08 10:34:28;;;;;;;6.60;2.05;;;;;;;23.38;65.28;158395.09;4916280;29;20090;-79
2022/08/08 10:36:55;;;;;;;3.85;1.63;;;;;;;23.38;69.17;158395.09;4914863;29;20035;-78
2022/08/08 10:39:23;;;;;;;5.07;1.75;;;;;;;23.23;65.81;158357.63;4899998;29;20054;-79
2022/08/08 10:42:00;;;;;;;8.00;1.70;;;;;;;22.72;66.89;158229.66;4915585;29;20036;-79
2022/08/08 10:44:33;;;;;;;6.93;1.70;;;;;;;22.74;67.73;158234.81;4930762;29;20163;-77
2022/08/08 10:47:09;;;;;;;5.53;1.52;;;;;;;22.70;67.44;158225.78;4911968;29;20035;-79
2022/08/08 10:49:36;;;;;;;5.07;1.92;;;;;;;22.64;70.92;158210.28;4913796;29;20455;-78
2022/08/08 10:52:02;;;;;;;5.03;1.77;;;;;;;22.62;70.01;158203.78;4915172;29;20031;-77
2022/08/08 10:54:27;;;;;;;4.68;1.67;;;;;;;22.62;66.19;158205.13;4905286;29;20115;-77
2022/08/08 10:57:01;;;;;;;5.57;1.50;;;;;;;22.62;70.70;158203.78;4914990;29;20127;-78
2022/08/08 10:59:27;;;;;;;6.40;1.70;;;;;;;22.43;67.58;158156.00;4905306;29;20131;-78
2022/08/08 11:01:53;;;;;;;4.38;1.50;;;;;;;22.58;64.74;158194.75;4914640;29;20120;-78
2022/08/08 11:04:18;;;;;;;4.03;1.65;;;;;;;22.71;64.72;158228.31;4891735;29;20031;-78
2022/08/08 11:06:44;;;;;;;5.15;1.63;;;;;;;22.87;67.12;158267.13;4909928;29;20178;-78
2022/08/08 11:09:11;;;;;;;6.38;1.80;;;;;;;22.88;64.25;158269.69;4911740;29;20490;-78
2022/08/08 11:11:44;;;;;;;2.60;1.45;;;;;;;22.77;64.88;158242.53;4930338;29;20088;-78
2022/08/08 11:14:13;;;;;;;4.45;1.60;;;;;;;22.79;68.73;158247.69;4913690;29;20162;-79
2022/08/08 11:16:41;;;;;;;4.93;1.77;;;;;;;22.85;69.88;158261.91;4914553;29;20067;-78
2022/08/08 11:19:07;;;;;;;6.90;1.45;;;;;;;22.66;66.15;158215.44;4915376;29;20040;-78
2022/08/08 11:21:39;;;;;;;5.55;1.70;;;;;;;22.62;65.96;158203.78;4910439;29;20107;-78
2022/08/08 11:24:07;;;;;;;;;;;;;;;22.64;65.83;158210.28;4902095;29;20217;-79
2022/08/08 11:26:34;;;;;;;7.72;2.00;;;;;;;22.89;66.62;158273.56;4910244;29;20308;-78
2022/08/08 11:29:02;;;;;;;7.15;1.73;;;;;;;22.84;64.76;158259.34;4928803;29;20047;-77
2022/08/08 11:31:32;;;;;;;6.10;1.85;;;;;;;22.85;68.87;158261.91;4909408;29;20514;-78
2022/08/08 11:34:02;;;;;;;3.95;1.70;;;;;;;23.01;63.37;158303.28;4913015;29;20035;-78
2022/08/08 11:36:29;;;;;;;7.65;1.83;;;;;;;22.81;67.43;158251.59;4914430;29;20115;-79
2022/08/08 11:38:56;;;;;;;5.05;1.77;;;;;;;22.77;66.22;158242.53;4932411;29;20401;-79
2022/08/08 11:41:27;;;;;;;5.95;1.52;;;;;;;22.79;67.34;158247.69;4916398;29;20036;-78
2022/08/08 11:43:53;;;;;;;4.65;1.73;;;;;;;22.90;63.67;158276.13;4918684;29;20068;-77
2022/08/08 11:46:23;;;;;;;4.57;1.90;;;;;;;22.70;62.01;158225.78;4908619;29;20028;-77
2022/08/08 11:48:49;;;;;;;5.35;2.00;;;;;;;22.70;65.33;158225.78;4914580;29;20118;-78
2022/08/08 11:51:17;;;;;;;11.27;1.95;;;;;;;22.71;65.55;158227.06;4914917;29;20040;-79
2022/08/08 11:53:43;;;;;;;3.75;1.40;;;;;;;22.85;65.22;158263.25;4916938;29;20056;-79
2022/08/08 11:56:18;;;;;;;6.93;2.17;;;;;;;22.97;63.42;158291.66;4916414;29;20032;-79
2022/08/08 11:58:43;;;;;;;4.70;1.60;;;;;;;22.85;61.90;158263.25;4907996;29;20039;-78